Time;durP1;ratioP1;P1;durP2;ratioP2;P2;SDS_P1;SDS_P2;PMS_P1;PMS_P2;Temp;Humidity;BMP_temperature;BMP_pressure;BME280_temperature;BME280_humidity;BME280_pressure;Samples;Min_cycle;Max_cycle;Signal;HPM_P1;HPM_P2
2022/09/20 00:07:03;;;;;;;1999.90;999.90;;;11.70;99.90;;;;;;6666771;88;20965;-78
2022/09/20 00:17:04;;;;;;;1999.90;999.90;;;11.70;99.90;;;;;;6664697;88;20219;-77
2022/09/20 00:27:05;;;;;;;1999.90;999.90;;;11.70;99.90;;;;;;6660010;88;20230;-77
2022/09/20 00:37:05;;;;;;;1999.90;999.90;;;11.60;99.90;;;;;;6662825;88;20610;-77
2022/09/20 00:47:12;;;;;;;1999.90;999.90;;;11.60;99.90;;;;;;6663953;88;20281;-75
2022/09/20 00:57:13;;;;;;;1999.90;999.90;;;11.40;99.90;;;;;;6665222;88;20195;-78
2022/09/20 01:07:16;;;;;;;1999.90;999.90;;;11.40;99.90;;;;;;6665430;88;20272;-77
2022/09/20 01:17:20;;;;;;;1999.90;999.90;;;11.20;99.90;;;;;;6673614;88;21093;-76
2022/09/20 01:27:47;;;;;;;1999.90;999.90;;;11.30;99.90;;;;;;6664776;88;20238;-76
2022/09/20 01:38:17;;;;;;;1999.90;999.90;;;11.30;99.90;;;;;;6647910;88;20189;-78
2022/09/20 01:48:46;;;;;;;1999.90;999.90;;;11.30;99.90;;;;;;6648727;88;20206;-76
2022/09/20 01:59:09;;;;;;;1999.90;999.90;;;11.30;99.90;;;;;;6647363;88;20217;-79
2022/09/20 02:09:38;;;;;;;1999.90;999.90;;;11.40;99.90;;;;;;6647008;89;20327;-78
2022/09/20 02:20:20;;;;;;;1999.90;999.90;;;11.30;99.90;;;;;;6647482;88;20195;-78
2022/09/20 02:30:42;;;;;;;1999.90;999.90;;;11.40;99.90;;;;;;6646827;88;20341;-78
2022/09/20 02:41:01;;;;;;;1999.90;999.90;;;11.50;99.90;;;;;;6646053;88;20196;-77
2022/09/20 02:51:23;;;;;;;1999.90;999.90;;;11.50;99.90;;;;;;6649204;89;20689;-77
2022/09/20 03:01:30;;;;;;;1999.90;999.90;;;11.20;99.90;;;;;;6644258;88;20214;-77
2022/09/20 03:11:45;;;;;;;1999.90;999.90;;;11.10;99.90;;;;;;6645914;88;20599;-77
2022/09/20 03:22:24;;;;;;;1999.90;999.90;;;10.90;99.90;;;;;;6646282;88;20311;-76
2022/09/20 03:32:49;;;;;;;1999.90;999.90;;;10.90;99.90;;;;;;6647463;89;20223;-79
2022/09/20 03:43:00;;;;;;;1999.90;999.90;;;10.80;99.90;;;;;;6646035;89;20216;-77
2022/09/20 03:53:01;;;;;;;1999.90;999.90;;;10.70;99.90;;;;;;6647815;88;20260;-79
2022/09/20 04:03:21;;;;;;;1999.90;999.90;;;10.70;99.90;;;;;;6648169;89;20326;-77
2022/09/20 04:14:08;;;;;;;1999.90;999.90;;;10.70;99.90;;;;;;6702050;78;20213;-81
2022/09/20 04:25:16;;;;;;;1999.90;999.90;;;10.70;99.90;;;;;;6728285;88;20181;-81
2022/09/20 04:46:46;;;;;;;1999.90;999.90;;;10.70;99.90;;;;;;6661292;89;20196;-81
2022/09/20 04:57:23;;;;;;;1999.90;999.90;;;10.70;99.90;;;;;;6674856;88;20196;-81
2022/09/20 05:07:55;;;;;;;1999.90;999.90;;;10.80;99.90;;;;;;6658714;88;20184;-80
2022/09/20 05:18:32;;;;;;;1999.90;999.90;;;10.80;99.90;;;;;;6724125;88;20240;-81
2022/09/20 05:28:48;;;;;;;1999.90;999.90;;;10.90;99.90;;;;;;6725091;88;20228;-80
2022/09/20 05:39:17;;;;;;;1999.90;999.90;;;10.80;99.90;;;;;;6655677;89;20545;-81
2022/09/20 05:49:43;;;;;;;1999.90;999.90;;;10.90;99.90;;;;;;6658717;89;20192;-81
2022/09/20 06:00:00;;;;;;;1999.90;999.90;;;10.90;99.90;;;;;;6674614;88;20646;-79
2022/09/20 06:10:10;;;;;;;1999.90;999.90;;;11.00;99.90;;;;;;6673545;89;20376;-82
2022/09/20 06:20:25;;;;;;;1999.90;999.90;;;11.10;99.90;;;;;;6702493;87;20942;-80
2022/09/20 06:30:33;;;;;;;1999.90;999.90;;;11.30;99.90;;;;;;6761345;88;20191;-79
2022/09/20 06:51:08;;;;;;;1999.90;999.90;;;11.60;99.90;;;;;;6745214;88;20177;-80
2022/09/20 07:01:09;;;;;;;1999.90;999.90;;;11.80;99.90;;;;;;6754407;88;20208;-78
2022/09/20 07:11:14;;;;;;;1999.90;999.90;;;12.10;99.90;;;;;;6756000;88;20184;-78
2022/09/20 07:21:16;;;;;;;1999.90;999.90;;;12.40;99.90;;;;;;6750462;88;20180;-79
2022/09/20 07:31:18;;;;;;;1999.90;999.90;;;13.30;99.90;;;;;;6751603;88;20608;-79
2022/09/20 07:41:22;;;;;;;1999.90;999.90;;;13.60;99.90;;;;;;6763892;88;20238;-79
2022/09/20 07:51:22;;;;;;;1999.90;999.90;;;13.90;99.90;;;;;;6766262;88;20188;-79
2022/09/20 08:01:23;;;;;;;1999.90;999.90;;;14.50;99.90;;;;;;6760723;88;20733;-79
2022/09/20 08:11:24;;;;;;;1999.90;999.90;;;14.90;99.90;;;;;;6770211;88;20184;-79
2022/09/20 08:21:27;;;;;;;1999.90;999.90;;;14.90;99.90;;;;;;6769925;88;20271;-79
2022/09/20 08:31:35;;;;;;;1999.90;999.90;;;15.40;99.90;;;;;;6758993;88;20205;-80
2022/09/20 08:41:42;;;;;;;1999.90;999.90;;;14.80;99.90;;;;;;6764959;88;20214;-79
2022/09/20 08:51:47;;;;;;;1999.90;999.90;;;14.40;99.90;;;;;;6763767;88;20184;-79
2022/09/20 09:01:50;;;;;;;1999.90;999.90;;;14.20;99.90;;;;;;6736577;88;20207;-79
2022/09/20 09:11:53;;;;;;;1999.90;999.90;;;14.30;99.90;;;;;;6721721;88;20214;-79
2022/09/20 09:22:02;;;;;;;1999.90;999.90;;;14.80;99.90;;;;;;6753132;88;20199;-80
2022/09/20 09:32:20;;;;;;;1999.90;999.90;;;16.50;99.90;;;;;;6767360;88;20205;-80
2022/09/20 09:42:27;;;;;;;1999.90;999.90;;;19.10;99.90;;;;;;6761153;88;20212;-80
2022/09/20 09:52:32;;;;;;;1999.90;999.90;;;18.30;99.90;;;;;;6755841;88;20299;-80
2022/09/20 10:02:48;;;;;;;1999.90;999.90;;;17.00;99.90;;;;;;6766215;88;20670;-80
2022/09/20 10:13:07;;;;;;;1999.90;999.90;;;16.90;99.90;;;;;;6758907;88;20500;-80
2022/09/20 10:23:17;;;;;;;1999.90;999.90;;;16.90;99.90;;;;;;6764851;88;20632;-79
2022/09/20 10:33:44;;;;;;;1999.90;999.90;;;16.50;99.90;;;;;;6761471;88;20577;-79
2022/09/20 10:44:05;;;;;;;1999.90;999.90;;;15.70;99.90;;;;;;6758207;88;20646;-80
2022/09/20 10:54:41;;;;;;;1999.90;999.90;;;15.40;99.90;;;;;;6740263;88;20206;-80
2022/09/20 11:05:19;;;;;;;1999.90;999.90;;;15.50;99.90;;;;;;6744403;88;20257;-80
2022/09/20 11:15:26;;;;;;;1999.90;999.90;;;15.30;99.90;;;;;;6742685;88;20295;-80
2022/09/20 11:25:45;;;;;;;1999.90;999.90;;;15.10;99.90;;;;;;6741872;88;20188;-80
2022/09/20 11:35:52;;;;;;;1999.90;999.90;;;15.00;99.90;;;;;;6742654;88;20277;-80
2022/09/20 11:45:57;;;;;;;1999.90;999.90;;;15.20;99.90;;;;;;6741615;88;20198;-80
2022/09/20 11:56:08;;;;;;;1999.90;999.90;;;16.00;99.90;;;;;;6755608;88;20227;-80
2022/09/20 12:06:32;;;;;;;1999.90;999.90;;;16.00;99.90;;;;;;6762979;88;20202;-80
2022/09/20 12:16:42;;;;;;;1999.90;999.90;;;16.00;99.90;;;;;;6772125;88;20212;-82
2022/09/20 12:26:44;;;;;;;1999.90;999.90;;;15.90;99.90;;;;;;6776240;88;20345;-80
2022/09/20 12:37:09;;;;;;;1999.90;999.90;;;15.50;99.90;;;;;;6775282;88;20183;-79
2022/09/20 12:47:09;;;;;;;1999.90;999.90;;;15.30;99.90;;;;;;6756868;88;20193;-79
2022/09/20 12:57:25;;;;;;;1999.90;999.90;;;15.10;99.90;;;;;;6758291;88;20184;-79
2022/09/20 13:07:37;;;;;;;1999.90;999.90;;;15.00;99.90;;;;;;6759367;88;20216;-81
2022/09/20 13:17:40;;;;;;;1999.90;999.90;;;15.20;99.90;;;;;;6762624;88;20196;-81
2022/09/20 13:27:51;;;;;;;1999.90;999.90;;;15.00;99.90;;;;;;6752864;88;20180;-80
2022/09/20 13:37:54;;;;;;;1999.90;999.90;;;15.60;99.90;;;;;;6751167;88;20275;-80
2022/09/20 13:47:57;;;;;;;1999.90;999.90;;;17.50;99.90;;;;;;6748377;88;20223;-79
2022/09/20 13:58:06;;;;;;;1999.90;999.90;;;18.20;99.90;;;;;;6739821;88;20227;-80
2022/09/20 14:08:16;;;;;;;1999.90;999.90;;;18.10;99.90;;;;;;6737735;88;20220;-80
2022/09/20 14:18:18;;;;;;;1999.90;999.90;;;17.40;99.90;;;;;;6742735;88;20810;-80
2022/09/20 14:28:19;;;;;;;1999.90;999.90;;;16.90;99.90;;;;;;6742159;88;20218;-80
2022/09/20 14:38:25;;;;;;;1999.90;999.90;;;16.30;99.90;;;;;;6751189;88;20189;-80
2022/09/20 14:48:36;;;;;;;1999.90;999.90;;;15.90;99.90;;;;;;6755744;88;20196;-79
2022/09/20 14:59:07;;;;;;;1999.90;999.90;;;15.70;99.90;;;;;;6764735;88;20201;-80
2022/09/20 15:09:11;;;;;;;1999.90;999.90;;;15.70;99.90;;;;;;6768121;88;20188;-80
2022/09/20 15:19:11;;;;;;;1999.90;999.90;;;15.70;99.90;;;;;;6750831;88;20362;-80
2022/09/20 15:29:18;;;;;;;1999.90;999.90;;;15.60;99.90;;;;;;6757383;88;20200;-80
2022/09/20 15:39:21;;;;;;;1999.90;999.90;;;16.10;99.90;;;;;;6755405;88;20737;-79
2022/09/20 15:49:21;;;;;;;1999.90;999.90;;;17.10;99.90;;;;;;6762284;88;20172;-81
2022/09/20 15:59:22;;;;;;;1999.90;999.90;;;17.10;99.90;;;;;;6775176;88;20615;-80
2022/09/20 16:19:26;;;;;;;1999.90;999.90;;;16.50;99.90;;;;;;6671611;88;20253;-77
2022/09/20 16:29:28;;;;;;;1999.90;999.90;;;16.00;99.90;;;;;;6673311;88;20756;-80
2022/09/20 16:39:30;;;;;;;1999.90;999.90;;;15.50;99.90;;;;;;6669280;88;20200;-79
2022/09/20 16:49:30;;;;;;;1999.90;999.90;;;15.40;99.90;;;;;;6673805;88;20678;-77
2022/09/20 16:59:31;;;;;;;1999.90;999.90;;;15.10;99.90;;;;;;6685083;88;20217;-77
2022/09/20 17:09:32;;;;;;;1999.90;999.90;;;15.00;99.90;;;;;;6669507;88;20184;-77
2022/09/20 17:19:32;;;;;;;1999.90;999.90;;;14.80;99.90;;;;;;6670415;89;20687;-78
2022/09/20 17:29:33;;;;;;;1999.90;999.90;;;14.70;99.90;;;;;;6667122;88;20183;-78
2022/09/20 17:39:33;;;;;;;1999.90;999.90;;;14.50;99.90;;;;;;6664593;89;20216;-78
2022/09/20 17:49:36;;;;;;;1999.90;999.90;;;14.50;99.90;;;;;;6666275;88;20251;-78
2022/09/20 17:59:36;;;;;;;1999.90;999.90;;;14.30;99.90;;;;;;6672550;88;20707;-78
2022/09/20 18:09:37;;;;;;;1999.90;999.90;;;14.00;99.90;;;;;;6664337;89;20232;-79
2022/09/20 18:19:40;;;;;;;1999.90;999.90;;;13.80;99.90;;;;;;6693734;88;20691;-78
2022/09/20 18:29:40;;;;;;;1999.90;999.90;;;13.80;99.90;;;;;;6673491;88;20191;-79
2022/09/20 18:39:41;;;;;;;1999.90;999.90;;;13.50;99.90;;;;;;6699472;88;20201;-79
2022/09/20 18:49:42;;;;;;;1999.90;999.90;;;13.60;99.90;;;;;;6670543;88;20663;-79
2022/09/20 18:59:42;;;;;;;1999.90;999.90;;;13.50;99.90;;;;;;6681944;88;20304;-78
2022/09/20 19:09:46;;;;;;;1999.90;999.90;;;13.50;99.90;;;;;;6670171;88;20208;-78
2022/09/20 19:19:57;;;;;;;1999.90;999.90;;;13.40;99.90;;;;;;6650333;89;20232;-78
2022/09/20 19:29:58;;;;;;;1999.90;999.90;;;13.40;99.90;;;;;;6642662;88;20974;-78
2022/09/20 19:40:04;;;;;;;1999.90;999.90;;;13.40;99.90;;;;;;6643877;88;20204;-78
2022/09/20 19:50:31;;;;;;;1999.90;999.90;;;13.20;99.90;;;;;;6645263;88;20212;-78
2022/09/20 20:00:32;;;;;;;1999.90;999.90;;;12.90;99.90;;;;;;6647680;88;20635;-78
2022/09/20 20:11:00;;;;;;;1999.90;999.90;;;12.70;99.90;;;;;;6649525;88;20225;-77
2022/09/20 20:21:03;;;;;;;1999.90;999.90;;;12.70;99.90;;;;;;6649893;89;20188;-77
2022/09/20 20:31:05;;;;;;;1999.90;999.90;;;12.80;99.90;;;;;;6652448;89;20219;-78
2022/09/20 20:41:08;;;;;;;1999.90;999.90;;;12.80;99.90;;;;;;6647254;88;20603;-78
2022/09/20 20:51:13;;;;;;;1999.90;999.90;;;12.70;99.90;;;;;;6647808;88;20215;-78
2022/09/20 21:01:15;;;;;;;;;;;12.60;99.90;;;;;;6651058;89;20287;-77
2022/09/20 21:11:19;;;;;;;1999.90;999.90;;;12.70;99.90;;;;;;6652497;89;20077;-78
2022/09/20 21:21:22;;;;;;;1999.90;999.90;;;12.40;99.90;;;;;;6655772;88;20198;-77
2022/09/20 21:31:22;;;;;;;1999.90;999.90;;;12.00;99.90;;;;;;6652441;88;20184;-77
2022/09/20 21:41:26;;;;;;;1999.90;999.90;;;11.80;99.90;;;;;;6655717;88;20631;-78
2022/09/20 21:51:30;;;;;;;1999.90;999.90;;;11.50;99.90;;;;;;6647431;89;20267;-79
2022/09/20 22:01:33;;;;;;;1999.90;999.90;;;11.30;99.90;;;;;;6658798;88;20662;-78
2022/09/20 22:21:43;;;;;;;1999.90;999.90;;;11.00;99.90;;;;;;6680811;89;20230;-82
2022/09/20 22:31:45;;;;;;;1999.90;999.90;;;10.80;99.90;;;;;;6672628;88;20210;-81
2022/09/20 22:41:46;;;;;;;1999.90;999.90;;;10.60;99.90;;;;;;6671156;89;20199;-82
2022/09/20 22:51:47;;;;;;;1999.90;999.90;;;10.60;99.90;;;;;;6670120;88;20236;-82
2022/09/20 23:01:47;;;;;;;1999.90;999.90;;;10.50;99.90;;;;;;6672669;89;20219;-82
2022/09/20 23:11:48;;;;;;;1999.90;999.90;;;10.20;99.90;;;;;;6666752;89;20647;-82
2022/09/20 23:21:49;;;;;;;1999.90;999.90;;;10.10;99.90;;;;;;6665441;88;20195;-82
2022/09/20 23:31:50;;;;;;;1999.90;999.90;;;10.00;99.90;;;;;;6665781;89;20196;-82
2022/09/20 23:41:50;;;;;;;1999.90;999.90;;;9.80;99.90;;;;;;6662526;88;20550;-81
2022/09/20 23:51:51;;;;;;;1999.90;999.90;;;9.60;99.90;;;;;;6644231;89;20231;-81
